createdAt,value
2018-06-22T00:00:34.405Z,0.50
2018-06-22T00:03:02.877Z,0.40
2018-06-22T00:05:31.393Z,0.40
2018-06-22T00:07:59.901Z,0.37
2018-06-22T00:10:28.378Z,0.40
2018-06-22T00:12:56.964Z,0.40
2018-06-22T00:15:25.396Z,0.40
2018-06-22T00:17:53.816Z,0.50
2018-06-22T00:20:22.432Z,0.50
2018-06-22T00:22:50.897Z,0.40
2018-06-22T00:25:29.438Z,0.40
2018-06-22T00:27:59.899Z,0.30
2018-06-22T00:30:34.786Z,0.60
2018-06-22T00:33:04.274Z,0.43
2018-06-22T00:35:32.829Z,0.50
2018-06-22T00:38:01.229Z,0.40
2018-06-22T00:40:29.658Z,0.40
2018-06-22T00:42:58.142Z,0.50
2018-06-22T00:45:26.542Z,0.57
2018-06-22T00:47:54.969Z,0.90
2018-06-22T00:50:23.354Z,0.30
2018-06-22T00:52:51.813Z,0.40
2018-06-22T00:55:20.221Z,0.37
2018-06-22T00:57:48.661Z,0.40
2018-06-22T01:00:17.122Z,0.60
2018-06-22T01:02:45.576Z,0.40
2018-06-22T01:05:13.977Z,0.50
2018-06-22T01:07:42.446Z,0.40
2018-06-22T01:10:10.848Z,0.33
2018-06-22T01:12:39.319Z,0.47
2018-06-22T01:15:07.747Z,0.60
2018-06-22T01:17:36.234Z,0.40
2018-06-22T01:20:04.637Z,0.60
2018-06-22T01:22:32.997Z,0.30
2018-06-22T01:25:01.362Z,0.80
2018-06-22T01:27:29.790Z,0.70
2018-06-22T01:29:58.205Z,0.97
2018-06-22T01:32:26.614Z,0.57
2018-06-22T01:34:55.063Z,0.83
2018-06-22T01:37:23.169Z,0.40
2018-06-22T01:39:51.582Z,0.90
2018-06-22T01:42:20.001Z,0.50
2018-06-22T01:44:48.489Z,0.93
2018-06-22T01:47:16.871Z,0.50
2018-06-22T01:49:45.290Z,0.80
2018-06-22T01:52:13.667Z,0.70
2018-06-22T01:54:42.466Z,0.97
2018-06-22T01:57:10.853Z,0.50
2018-06-22T01:59:39.319Z,1.20
2018-06-22T02:02:07.743Z,0.70
2018-06-22T02:04:37.134Z,0.67
2018-06-22T02:07:05.696Z,0.70
2018-06-22T02:09:34.945Z,0.70
2018-06-22T02:12:03.362Z,0.80
2018-06-22T02:14:31.808Z,0.70
2018-06-22T02:17:03.402Z,0.60
2018-06-22T02:19:31.861Z,1.10
2018-06-22T02:22:00.344Z,0.60
2018-06-22T02:24:28.787Z,0.60
2018-06-22T02:26:57.213Z,0.50
2018-06-22T02:29:25.637Z,0.63
2018-06-22T02:31:54.052Z,0.80
2018-06-22T02:34:22.473Z,1.17
2018-06-22T02:36:50.889Z,0.70
2018-06-22T02:39:19.299Z,0.80
2018-06-22T02:41:47.729Z,0.77
2018-06-22T02:44:16.202Z,0.73
2018-06-22T02:46:44.621Z,0.40
2018-06-22T02:49:13.084Z,0.73
2018-06-22T02:51:41.537Z,0.83
2018-06-22T02:54:10.012Z,0.70
2018-06-22T02:56:38.419Z,0.40
2018-06-22T02:59:06.798Z,0.60
2018-06-22T03:01:36.247Z,1.20
2018-06-22T03:04:04.644Z,0.60
2018-06-22T03:06:33.062Z,0.60
2018-06-22T03:09:01.575Z,0.60
2018-06-22T03:11:30.046Z,0.30
2018-06-22T03:13:58.518Z,0.73
2018-06-22T03:16:26.953Z,0.80
2018-06-22T03:18:55.401Z,0.70
2018-06-22T03:21:23.841Z,0.70
2018-06-22T03:23:52.932Z,0.73
2018-06-22T03:26:21.352Z,0.47
2018-06-22T03:28:49.794Z,0.60
2018-06-22T03:31:18.231Z,0.70
2018-06-22T03:33:46.748Z,0.50
2018-06-22T03:36:15.158Z,0.60
2018-06-22T03:38:43.293Z,0.60
2018-06-22T03:41:11.721Z,0.40
2018-06-22T03:43:40.154Z,0.73
2018-06-22T03:46:08.614Z,0.77
2018-06-22T03:48:37.101Z,0.90
2018-06-22T03:51:05.561Z,0.40
2018-06-22T03:53:34.088Z,0.37
2018-06-22T03:56:02.534Z,0.30
2018-06-22T03:58:30.976Z,0.70
2018-06-22T04:00:59.404Z,0.40
2018-06-22T04:03:27.841Z,0.90
2018-06-22T04:05:56.202Z,0.63
2018-06-22T04:08:26.623Z,0.73
2018-06-22T04:10:59.609Z,0.60
2018-06-22T04:13:28.973Z,0.30
2018-06-22T04:15:57.487Z,0.33
2018-06-22T04:18:25.977Z,0.40
2018-06-22T04:20:54.407Z,0.40
2018-06-22T04:23:22.835Z,0.50
2018-06-22T04:25:51.240Z,0.57
2018-06-22T04:28:19.419Z,0.40
2018-06-22T04:30:47.840Z,0.60
2018-06-22T04:33:16.215Z,0.40
2018-06-22T04:35:45.382Z,0.33
2018-06-22T04:38:13.822Z,0.40
2018-06-22T04:40:42.297Z,0.80
2018-06-22T04:43:10.744Z,0.57
2018-06-22T04:45:39.221Z,0.50
2018-06-22T04:48:07.636Z,0.40
2018-06-22T04:50:36.064Z,0.60
2018-06-22T04:53:04.582Z,0.30
2018-06-22T04:55:33.000Z,0.30
2018-06-22T04:58:01.508Z,0.60
2018-06-22T05:00:30.003Z,0.40
2018-06-22T05:02:58.547Z,0.33
2018-06-22T05:05:27.033Z,1.60
2018-06-22T05:07:55.411Z,0.67
2018-06-22T05:10:23.916Z,0.30
2018-06-22T05:12:52.314Z,0.30
2018-06-22T05:15:20.733Z,0.53
2018-06-22T05:17:49.154Z,0.40
2018-06-22T05:20:18.239Z,0.20
2018-06-22T05:22:46.804Z,0.67
2018-06-22T05:25:15.210Z,0.30
2018-06-22T05:27:43.353Z,0.47
2018-06-22T05:30:11.811Z,0.40
2018-06-22T05:32:40.288Z,0.40
2018-06-22T05:35:08.822Z,0.40
2018-06-22T05:37:37.254Z,0.40
2018-06-22T05:40:06.530Z,0.30
2018-06-22T05:42:35.805Z,0.30
2018-06-22T05:45:04.297Z,0.20
2018-06-22T05:47:32.802Z,0.37
2018-06-22T05:50:01.303Z,0.60
2018-06-22T05:52:29.754Z,0.87
2018-06-22T05:54:58.256Z,0.60
2018-06-22T05:57:26.910Z,0.50
2018-06-22T05:59:55.340Z,0.60
2018-06-22T06:02:23.816Z,0.57
2018-06-22T06:04:52.744Z,0.33
2018-06-22T06:07:21.449Z,0.40
2018-06-22T06:09:49.890Z,0.97
2018-06-22T06:12:18.907Z,0.50
2018-06-22T06:14:47.419Z,0.50
2018-06-22T06:17:15.853Z,0.40
2018-06-22T06:19:44.280Z,0.40
2018-06-22T06:22:13.093Z,0.43
2018-06-22T06:24:41.558Z,0.90
2018-06-22T06:27:10.079Z,0.70
2018-06-22T06:29:38.508Z,0.63
2018-06-22T06:32:06.955Z,0.47
2018-06-22T06:34:35.349Z,0.60
2018-06-22T06:37:03.497Z,0.40
2018-06-22T06:39:31.901Z,0.70
2018-06-22T06:42:00.459Z,0.87
2018-06-22T06:44:28.836Z,0.87
2018-06-22T06:46:57.228Z,1.13
2018-06-22T06:49:25.593Z,0.57
2018-06-22T06:51:54.066Z,0.70
2018-06-22T06:54:22.409Z,0.40
2018-06-22T06:56:50.861Z,0.37
2018-06-22T06:59:19.226Z,0.90
2018-06-22T07:01:47.637Z,0.77
2018-06-22T07:04:16.094Z,0.60
2018-06-22T07:06:45.161Z,0.80
2018-06-22T07:09:13.591Z,0.40
2018-06-22T07:11:41.953Z,0.50
2018-06-22T07:14:10.337Z,0.30
2018-06-22T07:16:38.715Z,0.20
2018-06-22T07:19:07.110Z,0.50
2018-06-22T07:21:35.217Z,0.37
2018-06-22T07:24:03.899Z,1.03
2018-06-22T07:26:32.646Z,0.50
2018-06-22T07:29:01.026Z,0.47
2018-06-22T07:31:29.421Z,0.97
2018-06-22T07:33:57.867Z,0.67
2018-06-22T07:36:26.275Z,1.03
2018-06-22T07:38:55.667Z,0.47
2018-06-22T07:41:24.309Z,0.37
2018-06-22T07:43:52.743Z,0.53
2018-06-22T07:48:55.871Z,0.37
2018-06-22T07:51:24.021Z,0.40
2018-06-22T07:53:52.382Z,0.60
2018-06-22T07:56:20.861Z,0.93
2018-06-22T07:58:49.304Z,0.37
2018-06-22T08:01:17.801Z,0.77
2018-06-22T08:03:46.227Z,0.77
2018-06-22T08:06:14.595Z,0.93
2018-06-22T08:08:43.157Z,0.73
2018-06-22T08:11:11.553Z,0.43
2018-06-22T08:13:39.970Z,0.50
2018-06-22T08:16:08.360Z,0.50
2018-06-22T08:18:36.847Z,0.40
2018-06-22T08:21:05.235Z,0.30
2018-06-22T08:23:34.138Z,0.30
2018-06-22T08:26:02.487Z,0.50
2018-06-22T08:28:30.888Z,0.30
2018-06-22T08:30:59.331Z,0.27
2018-06-22T08:33:27.933Z,0.47
2018-06-22T08:35:56.389Z,0.37
2018-06-22T08:38:24.831Z,0.40
2018-06-22T08:40:53.223Z,0.60
2018-06-22T08:43:21.792Z,0.50
2018-06-22T08:45:50.289Z,0.87
2018-06-22T08:48:18.729Z,0.50
2018-06-22T08:50:47.178Z,0.33
2018-06-22T08:53:15.618Z,0.77
2018-06-22T08:55:44.107Z,0.40
2018-06-22T08:58:12.509Z,0.50
2018-06-22T09:00:40.970Z,0.30
2018-06-22T09:03:09.419Z,0.27
2018-06-22T09:05:37.850Z,0.33
2018-06-22T09:08:06.495Z,0.10
2018-06-22T09:10:35.042Z,0.10
2018-06-22T09:13:03.467Z,0.10
2018-06-22T09:15:32.007Z,0.20
2018-06-22T09:18:00.412Z,0.13
2018-06-22T09:20:28.844Z,0.10
2018-06-22T09:22:57.286Z,0.10
2018-06-22T09:25:26.028Z,0.20
2018-06-22T09:27:54.523Z,0.30
2018-06-22T09:30:23.225Z,0.30
2018-06-22T09:32:51.639Z,0.20
2018-06-22T09:35:20.038Z,0.20
2018-06-22T09:37:48.486Z,0.30
2018-06-22T09:40:17.011Z,0.37
2018-06-22T09:42:45.496Z,0.30
2018-06-22T09:45:13.917Z,1.00
2018-06-22T09:47:42.382Z,0.20
2018-06-22T09:50:10.904Z,0.30
2018-06-22T09:52:39.384Z,0.80
2018-06-22T09:55:07.841Z,0.23
2018-06-22T09:57:36.272Z,0.60
2018-06-22T10:00:04.738Z,0.40
2018-06-22T10:02:33.162Z,0.40
2018-06-22T10:05:01.315Z,0.40
2018-06-22T10:07:29.722Z,0.27
2018-06-22T10:09:58.140Z,0.53
2018-06-22T10:12:27.202Z,0.40
2018-06-22T10:14:55.671Z,0.30
2018-06-22T10:17:24.144Z,0.30
2018-06-22T10:19:52.994Z,0.30
2018-06-22T10:22:21.407Z,0.20
2018-06-22T10:24:49.803Z,0.40
2018-06-22T10:27:18.280Z,0.37
2018-06-22T10:29:46.658Z,0.30
2018-06-22T10:32:15.486Z,0.37
2018-06-22T10:34:43.930Z,0.53
2018-06-22T10:37:12.384Z,0.60
2018-06-22T10:39:40.854Z,0.50
2018-06-22T10:42:09.400Z,0.40
2018-06-22T10:44:37.850Z,0.43
2018-06-22T10:47:06.295Z,0.50
2018-06-22T10:49:34.669Z,0.53
2018-06-22T10:52:03.137Z,0.60
2018-06-22T10:54:31.767Z,0.87
2018-06-22T10:57:00.571Z,0.60
2018-06-22T10:59:28.678Z,0.50
2018-06-22T11:01:57.163Z,0.40
2018-06-22T11:04:25.546Z,0.80
2018-06-22T11:06:53.915Z,0.60
2018-06-22T11:09:22.341Z,1.23
2018-06-22T11:11:50.711Z,0.47
2018-06-22T11:14:19.085Z,0.60
2018-06-22T11:16:47.544Z,0.30
2018-06-22T11:19:17.134Z,0.30
2018-06-22T11:21:45.583Z,0.40
2018-06-22T11:24:14.029Z,0.80
2018-06-22T11:26:42.541Z,0.50
2018-06-22T11:29:10.957Z,0.27
2018-06-22T11:31:39.365Z,0.20
2018-06-22T11:34:07.877Z,0.30
2018-06-22T11:36:42.185Z,0.30
2018-06-22T11:39:11.893Z,0.37
2018-06-22T11:41:41.370Z,0.30
2018-06-22T11:44:10.590Z,0.25
2018-06-22T11:46:39.164Z,0.20
2018-06-22T11:49:07.576Z,0.10
2018-06-22T11:51:36.228Z,0.20
2018-06-22T11:54:05.619Z,0.43
2018-06-22T11:56:34.038Z,0.30
2018-06-22T11:59:02.542Z,0.20
2018-06-22T12:01:30.868Z,0.10
2018-06-22T12:03:59.968Z,0.30
2018-06-22T12:06:28.395Z,0.50
2018-06-22T12:08:56.799Z,0.80
2018-06-22T12:11:25.218Z,0.25
2018-06-22T12:13:53.679Z,0.40
2018-06-22T12:16:22.056Z,0.15
2018-06-22T12:18:50.502Z,0.30
2018-06-22T12:21:18.906Z,0.30
2018-06-22T12:23:47.344Z,0.20
2018-06-22T12:26:16.612Z,0.30
2018-06-22T12:28:45.138Z,0.33
2018-06-22T12:31:13.560Z,0.20
2018-06-22T12:33:42.233Z,0.20
2018-06-22T12:36:14.459Z,0.20
2018-06-22T12:38:42.908Z,0.33
2018-06-22T12:41:11.375Z,0.10
2018-06-22T12:43:39.777Z,0.47
2018-06-22T12:46:08.340Z,0.30
2018-06-22T12:48:36.759Z,0.30
2018-06-22T12:51:05.187Z,0.30
2018-06-22T12:53:33.559Z,0.42
2018-06-22T12:56:01.730Z,0.10
2018-06-22T12:58:30.140Z,0.10
2018-06-22T13:00:58.510Z,0.42
2018-06-22T13:03:26.911Z,0.20
2018-06-22T13:05:55.352Z,0.20
2018-06-22T13:08:23.759Z,0.53
2018-06-22T13:10:52.162Z,0.40
2018-06-22T13:13:20.631Z,0.20
2018-06-22T13:15:49.059Z,0.30
2018-06-22T13:18:17.412Z,0.30
2018-06-22T13:20:45.856Z,0.37
2018-06-22T13:23:14.269Z,0.30
2018-06-22T13:25:42.775Z,0.15
2018-06-22T13:28:11.179Z,0.30
2018-06-22T13:30:39.592Z,0.20
2018-06-22T13:33:09.029Z,0.30
2018-06-22T13:35:37.490Z,1.20
2018-06-22T13:38:05.868Z,0.20
2018-06-22T13:40:34.409Z,0.42
2018-06-22T13:43:02.812Z,0.50
2018-06-22T13:45:31.267Z,0.23
2018-06-22T13:47:59.657Z,0.30
2018-06-22T13:50:28.169Z,0.40
2018-06-22T13:52:56.567Z,0.10
2018-06-22T13:55:24.960Z,0.60
2018-06-22T13:57:53.429Z,0.82
2018-06-22T14:00:22.428Z,0.17
2018-06-22T14:02:50.805Z,0.20
2018-06-22T14:05:24.502Z,0.78
2018-06-22T14:07:52.927Z,0.62
2018-06-22T14:10:21.397Z,0.50
2018-06-22T14:12:50.047Z,0.20
2018-06-22T14:15:18.696Z,0.60
2018-06-22T14:17:47.094Z,0.20
2018-06-22T14:20:15.559Z,0.57
2018-06-22T14:22:44.073Z,0.30
2018-06-22T14:25:12.489Z,0.30
2018-06-22T14:27:40.880Z,0.23
2018-06-22T14:30:09.327Z,0.37
2018-06-22T14:32:37.788Z,0.30
2018-06-22T14:35:06.232Z,0.68
2018-06-22T14:37:34.600Z,0.30
2018-06-22T14:40:02.760Z,0.23
2018-06-22T14:42:31.178Z,0.68
2018-06-22T14:45:00.329Z,0.57
2018-06-22T14:47:28.811Z,0.40
2018-06-22T14:49:57.222Z,0.50
2018-06-22T14:52:25.664Z,0.50
2018-06-22T14:54:59.294Z,0.62
2018-06-22T14:58:36.820Z,0.62
2018-06-22T15:01:10.544Z,0.80
2018-06-22T15:03:44.382Z,0.20
2018-06-22T15:06:18.070Z,0.42
2018-06-22T15:08:46.480Z,0.40
2018-06-22T15:11:14.908Z,0.90
2018-06-22T15:13:43.553Z,0.40
2018-06-22T15:16:11.899Z,0.50
2018-06-22T15:18:40.428Z,0.60
2018-06-22T15:21:15.335Z,0.40
2018-06-22T15:23:43.748Z,0.60
2018-06-22T15:26:12.134Z,1.47
2018-06-22T15:28:40.739Z,0.75
2018-06-22T15:31:09.154Z,0.80
2018-06-22T15:33:43.019Z,0.53
2018-06-22T15:36:16.859Z,0.70
2018-06-22T15:38:50.703Z,0.20
2018-06-22T15:43:29.151Z,0.40
2018-06-22T15:46:03.036Z,0.55
2018-06-22T15:49:37.728Z,0.40
2018-06-22T15:52:11.838Z,0.88
2018-06-22T15:54:45.666Z,0.60
2018-06-22T15:57:15.104Z,0.80
2018-06-22T15:59:43.643Z,0.50
2018-06-22T16:02:17.325Z,0.30
2018-06-22T16:04:45.744Z,0.65
2018-06-22T16:07:15.082Z,0.40
2018-06-22T16:09:48.782Z,0.42
2018-06-22T16:12:22.345Z,0.50
2018-06-22T16:14:56.160Z,0.60
2018-06-22T16:17:29.908Z,0.60
2018-06-22T16:20:03.569Z,0.30
2018-06-22T16:22:37.305Z,0.75
2018-06-22T16:25:10.998Z,0.60
2018-06-22T16:27:42.091Z,0.40
2018-06-22T16:30:11.313Z,0.60
2018-06-22T16:32:39.673Z,1.05
2018-06-22T16:35:08.157Z,0.50
2018-06-22T16:37:36.555Z,0.80
2018-06-22T16:40:05.317Z,0.88
2018-06-22T16:42:41.107Z,0.37
2018-06-22T16:45:09.525Z,0.98
2018-06-22T16:47:37.963Z,0.50
2018-06-22T16:50:07.830Z,0.70
2018-06-22T16:52:36.635Z,0.90
2018-06-22T16:55:05.166Z,0.90
2018-06-22T16:57:33.817Z,0.60
2018-06-22T17:00:02.195Z,0.78
2018-06-22T17:02:30.871Z,0.47
2018-06-22T17:04:59.332Z,0.50
2018-06-22T17:07:32.996Z,0.62
2018-06-22T17:10:06.779Z,0.45
2018-06-22T17:12:40.578Z,0.75
2018-06-22T17:15:14.292Z,0.67
2018-06-22T17:17:48.098Z,0.80
2018-06-22T17:20:16.602Z,0.77
2018-06-22T17:22:45.088Z,1.07
2018-06-22T17:25:14.012Z,0.98
2018-06-22T17:27:42.747Z,0.60
2018-06-22T17:30:11.181Z,0.50
2018-06-22T17:32:39.606Z,0.68
2018-06-22T17:35:08.056Z,1.15
2018-06-22T17:37:36.960Z,1.32
2018-06-22T17:40:05.452Z,0.60
2018-06-22T17:42:33.896Z,0.60
2018-06-22T17:45:02.399Z,1.20
2018-06-22T17:47:30.806Z,0.90
2018-06-22T17:50:06.336Z,0.70
2018-06-22T17:52:34.707Z,1.35
2018-06-22T17:55:03.159Z,1.40
2018-06-22T17:57:31.591Z,1.30
2018-06-22T18:00:05.393Z,1.10
2018-06-22T18:02:39.186Z,1.85
2018-06-22T18:05:13.049Z,1.15
2018-06-22T18:07:43.559Z,0.88
2018-06-22T18:10:17.300Z,0.93
2018-06-22T18:13:01.649Z,1.10
2018-06-22T18:15:30.037Z,0.98
2018-06-22T18:17:58.478Z,1.40
2018-06-22T18:20:26.988Z,1.10
2018-06-22T18:22:55.451Z,1.13
2018-06-22T18:25:23.892Z,1.07
2018-06-22T18:27:52.367Z,1.27
2018-06-22T18:30:21.543Z,1.30
2018-06-22T18:32:49.972Z,0.70
2018-06-22T18:35:18.424Z,0.90
2018-06-22T18:37:46.877Z,0.90
2018-06-22T18:40:15.390Z,1.20
2018-06-22T18:42:43.829Z,1.23
2018-06-22T18:45:12.612Z,1.17
2018-06-22T18:47:41.358Z,1.30
2018-06-22T18:50:09.850Z,1.57
2018-06-22T18:52:43.631Z,1.13
2018-06-22T18:55:17.347Z,1.43
2018-06-22T18:57:51.175Z,1.23
2018-06-22T19:00:24.913Z,3.98
2018-06-22T19:02:58.693Z,1.03
2018-06-22T19:05:27.190Z,1.30
2018-06-22T19:07:55.713Z,1.10
2018-06-22T19:10:24.193Z,1.07
2018-06-22T19:12:52.578Z,1.93
2018-06-22T19:15:21.280Z,1.90
2018-06-22T19:17:49.687Z,1.47
2018-06-22T19:20:18.232Z,1.13
2018-06-22T19:22:46.909Z,1.37
2018-06-22T19:25:15.433Z,1.23
2018-06-22T19:27:43.956Z,1.33
2018-06-22T19:30:12.368Z,0.97
2018-06-22T19:32:40.819Z,0.80
2018-06-22T19:35:11.160Z,0.90
2018-06-22T19:37:39.584Z,1.50
2018-06-22T19:40:08.225Z,1.43
2018-06-22T19:42:37.110Z,0.97
2018-06-22T19:45:11.109Z,1.30
2018-06-22T19:47:44.826Z,1.00
2018-06-22T19:50:18.513Z,1.30
2018-06-22T19:52:52.306Z,1.10
2018-06-22T19:55:20.845Z,1.10
2018-06-22T19:57:49.699Z,0.87
2018-06-22T20:00:18.205Z,1.10
2018-06-22T20:02:46.638Z,0.97
2018-06-22T20:05:15.026Z,1.20
2018-06-22T20:07:43.449Z,1.00
2018-06-22T20:10:11.902Z,1.10
2018-06-22T20:12:40.285Z,2.00
2018-06-22T20:15:08.654Z,1.07
2018-06-22T20:17:37.186Z,1.50
2018-06-22T20:20:07.245Z,1.23
2018-06-22T20:22:35.707Z,1.30
2018-06-22T20:25:09.364Z,1.00
2018-06-22T20:27:37.781Z,1.40
2018-06-22T20:30:06.207Z,1.00
2018-06-22T20:32:34.717Z,1.63
2018-06-22T20:35:08.487Z,1.73
2018-06-22T20:37:43.294Z,0.87
2018-06-22T20:40:17.057Z,1.17
2018-06-22T20:42:52.582Z,3.23
2018-06-22T20:45:26.403Z,3.70
2018-06-22T20:48:00.158Z,1.27
2018-06-22T20:50:32.172Z,2.50
2018-06-22T20:53:00.993Z,2.13
2018-06-22T20:55:29.400Z,0.90
2018-06-22T20:57:57.832Z,1.30
2018-06-22T21:00:26.821Z,1.00
2018-06-22T21:02:55.524Z,1.03
2018-06-22T21:05:23.984Z,1.73
2018-06-22T21:07:52.645Z,1.10
2018-06-22T21:10:21.067Z,1.13
2018-06-22T21:12:49.581Z,0.97
2018-06-22T21:15:18.014Z,2.10
2018-06-22T21:17:46.396Z,1.33
2018-06-22T21:20:14.912Z,0.77
2018-06-22T21:22:43.397Z,1.07
2018-06-22T21:25:11.789Z,1.20
2018-06-22T21:27:45.521Z,1.30
2018-06-22T21:30:19.207Z,1.57
2018-06-22T21:32:52.925Z,1.30
2018-06-22T21:35:26.721Z,1.00
2018-06-22T21:38:00.363Z,0.73
2018-06-22T21:40:29.379Z,1.07
2018-06-22T21:42:57.754Z,1.20
2018-06-22T21:45:26.240Z,1.10
2018-06-22T21:47:54.620Z,0.97
2018-06-22T21:50:23.087Z,1.10
2018-06-22T21:52:51.560Z,1.23
2018-06-22T21:55:20.061Z,0.63
2018-06-22T21:57:48.437Z,1.10
2018-06-22T22:00:23.811Z,1.33
2018-06-22T22:02:52.385Z,1.33
2018-06-22T22:05:20.812Z,0.83
2018-06-22T22:07:49.172Z,1.00
2018-06-22T22:10:21.821Z,0.77
2018-06-22T22:12:50.332Z,1.10
2018-06-22T22:15:18.738Z,0.97
2018-06-22T22:17:47.133Z,0.50
2018-06-22T22:20:16.668Z,1.20
2018-06-22T22:22:45.117Z,0.87
2018-06-22T22:25:13.520Z,0.70
2018-06-22T22:27:41.906Z,1.00
2018-06-22T22:30:10.275Z,0.97
2018-06-22T22:32:38.625Z,0.97
2018-06-22T22:35:07.099Z,0.73
2018-06-22T22:37:35.496Z,1.20
2018-06-22T22:40:03.911Z,0.90
2018-06-22T22:42:32.306Z,1.47
2018-06-22T22:45:00.692Z,0.97
2018-06-22T22:47:29.053Z,1.47
2018-06-22T22:49:57.462Z,0.60
2018-06-22T22:52:25.585Z,0.70
2018-06-22T22:54:54.071Z,0.63
2018-06-22T22:57:22.795Z,0.80
2018-06-22T22:59:51.734Z,0.80
2018-06-22T23:02:20.133Z,1.13
2018-06-22T23:04:48.520Z,0.80
2018-06-22T23:07:17.597Z,0.70
2018-06-22T23:09:46.128Z,0.80
2018-06-22T23:12:14.526Z,1.00
2018-06-22T23:14:43.179Z,1.30
2018-06-22T23:17:11.564Z,1.03
2018-06-22T23:19:39.967Z,0.90
2018-06-22T23:22:08.358Z,1.60
2018-06-22T23:24:36.746Z,0.80
2018-06-22T23:27:05.135Z,0.70
2018-06-22T23:29:33.548Z,0.80
2018-06-22T23:32:01.917Z,0.63
2018-06-22T23:34:30.332Z,0.50
2018-06-22T23:36:58.729Z,0.80
2018-06-22T23:39:27.153Z,0.90
2018-06-22T23:41:55.666Z,1.00
2018-06-22T23:44:24.124Z,0.60
2018-06-22T23:46:52.921Z,0.80
2018-06-22T23:49:21.301Z,0.93
2018-06-22T23:51:49.658Z,0.90
2018-06-22T23:54:18.091Z,0.73
2018-06-22T23:56:46.467Z,0.77
2018-06-22T23:59:14.843Z,0.90
